sensor_id;sensor_type;location;lat;lon;timestamp;pressure;altitude;pressure_sealevel;temperature
48894;BMP280;34710;35.798;139.446;2023-04-03T00:01:49;101420.29;;;17.78
48894;BMP280;34710;35.798;139.446;2023-04-03T00:04:15;101420.08;;;18.17
48894;BMP280;34710;35.798;139.446;2023-04-03T00:06:40;101417.53;;;18.45
48894;BMP280;34710;35.798;139.446;2023-04-03T00:09:06;101418.46;;;18.72
48894;BMP280;34710;35.798;139.446;2023-04-03T00:11:31;101413.79;;;18.53
48894;BMP280;34710;35.798;139.446;2023-04-03T00:13:57;101411.00;;;18.85
48894;BMP280;34710;35.798;139.446;2023-04-03T00:16:22;101409.57;;;19.04
48894;BMP280;34710;35.798;139.446;2023-04-03T00:18:47;101410.72;;;19.04
48894;BMP280;34710;35.798;139.446;2023-04-03T00:21:14;101406.56;;;19.44
48894;BMP280;34710;35.798;139.446;2023-04-03T00:23:38;101408.59;;;18.94
48894;BMP280;34710;35.798;139.446;2023-04-03T00:26:03;101409.03;;;19.08
48894;BMP280;34710;35.798;139.446;2023-04-03T00:28:29;101406.44;;;19.52
48894;BMP280;34710;35.798;139.446;2023-04-03T00:30:54;101409.25;;;20.32
48894;BMP280;34710;35.798;139.446;2023-04-03T00:33:20;101406.85;;;20.11
48894;BMP280;34710;35.798;139.446;2023-04-03T00:35:45;101402.72;;;20.01
48894;BMP280;34710;35.798;139.446;2023-04-03T00:38:11;101403.15;;;20.31
48894;BMP280;34710;35.798;139.446;2023-04-03T00:40:38;101400.87;;;20.45
48894;BMP280;34710;35.798;139.446;2023-04-03T00:43:01;101407.95;;;20.34
48894;BMP280;34710;35.798;139.446;2023-04-03T00:45:34;101400.68;;;20.05
48894;BMP280;34710;35.798;139.446;2023-04-03T00:47:52;101399.87;;;20.02
48894;BMP280;34710;35.798;139.446;2023-04-03T00:50:17;101399.61;;;19.96
48894;BMP280;34710;35.798;139.446;2023-04-03T00:52:42;101399.62;;;19.88
48894;BMP280;34710;35.798;139.446;2023-04-03T00:55:09;101400.96;;;20.13
48894;BMP280;34710;35.798;139.446;2023-04-03T00:57:34;101394.87;;;19.95
48894;BMP280;34710;35.798;139.446;2023-04-03T01:00:04;101393.39;;;19.78
48894;BMP280;34710;35.798;139.446;2023-04-03T01:02:24;101385.52;;;19.99
48894;BMP280;34710;35.798;139.446;2023-04-03T01:04:50;101384.87;;;20.65
48894;BMP280;34710;35.798;139.446;2023-04-03T01:07:17;101385.85;;;20.27
48894;BMP280;34710;35.798;139.446;2023-04-03T01:09:41;101382.75;;;19.90
48894;BMP280;34710;35.798;139.446;2023-04-03T01:12:16;101378.68;;;20.56
48894;BMP280;34710;35.798;139.446;2023-04-03T01:14:31;101378.26;;;21.14
48894;BMP280;34710;35.798;139.446;2023-04-03T01:16:57;101372.38;;;21.31
48894;BMP280;34710;35.798;139.446;2023-04-03T01:19:23;101370.21;;;21.45
48894;BMP280;34710;35.798;139.446;2023-04-03T01:24:29;101372.56;;;21.74
48894;BMP280;34710;35.798;139.446;2023-04-03T01:26:38;101374.46;;;21.91
48894;BMP280;34710;35.798;139.446;2023-04-03T01:29:04;101374.89;;;22.04
48894;BMP280;34710;35.798;139.446;2023-04-03T01:33:55;101368.78;;;22.27
48894;BMP280;34710;35.798;139.446;2023-04-03T01:36:22;101371.45;;;22.55
48894;BMP280;34710;35.798;139.446;2023-04-03T01:38:45;101365.64;;;23.16
48894;BMP280;34710;35.798;139.446;2023-04-03T01:41:10;101364.49;;;23.04
48894;BMP280;34710;35.798;139.446;2023-04-03T01:43:36;101362.96;;;22.73
48894;BMP280;34710;35.798;139.446;2023-04-03T01:46:01;101359.21;;;22.72
48894;BMP280;34710;35.798;139.446;2023-04-03T01:48:27;101359.06;;;22.82
48894;BMP280;34710;35.798;139.446;2023-04-03T01:50:53;101359.44;;;22.84
48894;BMP280;34710;35.798;139.446;2023-04-03T01:53:18;101359.11;;;23.00
48894;BMP280;34710;35.798;139.446;2023-04-03T01:55:43;101354.86;;;22.56
48894;BMP280;34710;35.798;139.446;2023-04-03T01:58:08;101352.78;;;22.57
48894;BMP280;34710;35.798;139.446;2023-04-03T02:00:34;101348.59;;;22.93
48894;BMP280;34710;35.798;139.446;2023-04-03T02:02:59;101340.55;;;22.71
48894;BMP280;34710;35.798;139.446;2023-04-03T02:05:25;101338.05;;;22.89
48894;BMP280;34710;35.798;139.446;2023-04-03T02:07:50;101331.91;;;22.96
48894;BMP280;34710;35.798;139.446;2023-04-03T02:10:15;101324.28;;;23.19
48894;BMP280;34710;35.798;139.446;2023-04-03T02:12:40;101324.57;;;22.88
48894;BMP280;34710;35.798;139.446;2023-04-03T02:15:07;101323.34;;;22.88
48894;BMP280;34710;35.798;139.446;2023-04-03T02:17:32;101327.84;;;23.06
48894;BMP280;34710;35.798;139.446;2023-04-03T02:19:57;101320.83;;;22.96
48894;BMP280;34710;35.798;139.446;2023-04-03T02:22:23;101322.89;;;22.57
48894;BMP280;34710;35.798;139.446;2023-04-03T02:24:48;101320.35;;;22.48
48894;BMP280;34710;35.798;139.446;2023-04-03T02:27:13;101317.41;;;21.75
48894;BMP280;34710;35.798;139.446;2023-04-03T02:29:38;101313.84;;;22.02
48894;BMP280;34710;35.798;139.446;2023-04-03T02:32:05;101318.46;;;21.37
48894;BMP280;34710;35.798;139.446;2023-04-03T02:34:29;101309.75;;;22.07
48894;BMP280;34710;35.798;139.446;2023-04-03T02:36:55;101309.57;;;21.85
48894;BMP280;34710;35.798;139.446;2023-04-03T02:39:20;101301.68;;;22.20
48894;BMP280;34710;35.798;139.446;2023-04-03T02:41:46;101297.99;;;22.95
48894;BMP280;34710;35.798;139.446;2023-04-03T02:44:12;101293.74;;;23.42
48894;BMP280;34710;35.798;139.446;2023-04-03T02:46:36;101285.54;;;23.78
48894;BMP280;34710;35.798;139.446;2023-04-03T02:49:02;101279.70;;;23.12
48894;BMP280;34710;35.798;139.446;2023-04-03T02:51:27;101276.73;;;23.47
48894;BMP280;34710;35.798;139.446;2023-04-03T02:53:52;101276.96;;;23.22
48894;BMP280;34710;35.798;139.446;2023-04-03T02:56:18;101278.37;;;23.56
48894;BMP280;34710;35.798;139.446;2023-04-03T02:58:43;101270.87;;;23.76
48894;BMP280;34710;35.798;139.446;2023-04-03T03:01:09;101272.81;;;23.50
48894;BMP280;34710;35.798;139.446;2023-04-03T03:03:34;101261.94;;;23.54
48894;BMP280;34710;35.798;139.446;2023-04-03T03:06:04;101257.78;;;23.81
48894;BMP280;34710;35.798;139.446;2023-04-03T03:08:25;101261.65;;;23.50
48894;BMP280;34710;35.798;139.446;2023-04-03T03:10:50;101255.65;;;23.59
48894;BMP280;34710;35.798;139.446;2023-04-03T03:13:16;101255.09;;;23.31
48894;BMP280;34710;35.798;139.446;2023-04-03T03:15:41;101251.83;;;23.68
48894;BMP280;34710;35.798;139.446;2023-04-03T03:18:06;101247.21;;;23.93
48894;BMP280;34710;35.798;139.446;2023-04-03T03:20:32;101237.61;;;23.79
48894;BMP280;34710;35.798;139.446;2023-04-03T03:22:57;101230.58;;;24.15
48894;BMP280;34710;35.798;139.446;2023-04-03T03:25:22;101228.41;;;23.45
48894;BMP280;34710;35.798;139.446;2023-04-03T03:27:48;101228.76;;;23.85
48894;BMP280;34710;35.798;139.446;2023-04-03T03:30:14;101221.16;;;23.54
48894;BMP280;34710;35.798;139.446;2023-04-03T03:32:39;101220.27;;;24.00
48894;BMP280;34710;35.798;139.446;2023-04-03T03:35:04;101221.15;;;24.23
48894;BMP280;34710;35.798;139.446;2023-04-03T03:37:29;101218.35;;;23.24
48894;BMP280;34710;35.798;139.446;2023-04-03T03:39:56;101218.21;;;23.69
48894;BMP280;34710;35.798;139.446;2023-04-03T03:42:21;101214.06;;;23.73
48894;BMP280;34710;35.798;139.446;2023-04-03T03:44:46;101207.76;;;22.28
48894;BMP280;34710;35.798;139.446;2023-04-03T03:47:11;101205.83;;;22.86
48894;BMP280;34710;35.798;139.446;2023-04-03T03:49:37;101207.41;;;22.83
48894;BMP280;34710;35.798;139.446;2023-04-03T03:52:02;101197.46;;;23.08
48894;BMP280;34710;35.798;139.446;2023-04-03T03:54:28;101196.73;;;23.01
48894;BMP280;34710;35.798;139.446;2023-04-03T03:56:53;101194.25;;;23.24
48894;BMP280;34710;35.798;139.446;2023-04-03T03:59:18;101194.50;;;23.04
48894;BMP280;34710;35.798;139.446;2023-04-03T04:01:44;101192.77;;;23.10
48894;BMP280;34710;35.798;139.446;2023-04-03T04:04:09;101188.43;;;22.65
48894;BMP280;34710;35.798;139.446;2023-04-03T04:06:34;101187.29;;;23.05
48894;BMP280;34710;35.798;139.446;2023-04-03T04:09:00;101191.62;;;22.29
48894;BMP280;34710;35.798;139.446;2023-04-03T04:11:25;101188.03;;;23.06
48894;BMP280;34710;35.798;139.446;2023-04-03T04:13:50;101187.13;;;23.02
48894;BMP280;34710;35.798;139.446;2023-04-03T04:16:16;101177.66;;;23.06
48894;BMP280;34710;35.798;139.446;2023-04-03T04:18:42;101176.46;;;23.32
48894;BMP280;34710;35.798;139.446;2023-04-03T04:21:07;101171.19;;;23.38
48894;BMP280;34710;35.798;139.446;2023-04-03T04:23:32;101174.09;;;22.81
48894;BMP280;34710;35.798;139.446;2023-04-03T04:25:57;101170.21;;;23.12
48894;BMP280;34710;35.798;139.446;2023-04-03T04:28:23;101169.98;;;23.16
48894;BMP280;34710;35.798;139.446;2023-04-03T04:30:49;101168.57;;;22.58
48894;BMP280;34710;35.798;139.446;2023-04-03T04:33:14;101166.73;;;21.28
48894;BMP280;34710;35.798;139.446;2023-04-03T04:35:40;101166.80;;;20.85
48894;BMP280;34710;35.798;139.446;2023-04-03T04:38:05;101161.80;;;20.53
48894;BMP280;34710;35.798;139.446;2023-04-03T04:40:30;101163.74;;;21.25
48894;BMP280;34710;35.798;139.446;2023-04-03T04:42:55;101155.18;;;21.56
48894;BMP280;34710;35.798;139.446;2023-04-03T04:45:21;101158.90;;;21.85
48894;BMP280;34710;35.798;139.446;2023-04-03T04:47:46;101149.31;;;22.39
48894;BMP280;34710;35.798;139.446;2023-04-03T04:50:12;101151.41;;;21.79
48894;BMP280;34710;35.798;139.446;2023-04-03T04:52:37;101150.10;;;21.69
48894;BMP280;34710;35.798;139.446;2023-04-03T04:55:03;101147.97;;;20.78
48894;BMP280;34710;35.798;139.446;2023-04-03T04:57:29;101143.52;;;20.40
48894;BMP280;34710;35.798;139.446;2023-04-03T04:59:53;101135.63;;;21.00
48894;BMP280;34710;35.798;139.446;2023-04-03T05:02:19;101137.06;;;21.23
48894;BMP280;34710;35.798;139.446;2023-04-03T05:04:44;101140.86;;;21.78
48894;BMP280;34710;35.798;139.446;2023-04-03T05:07:09;101132.32;;;22.06
48894;BMP280;34710;35.798;139.446;2023-04-03T05:09:35;101123.55;;;22.38
48894;BMP280;34710;35.798;139.446;2023-04-03T05:12:01;101116.82;;;22.75
48894;BMP280;34710;35.798;139.446;2023-04-03T05:14:26;101121.19;;;22.85
48894;BMP280;34710;35.798;139.446;2023-04-03T05:16:51;101117.23;;;22.42
48894;BMP280;34710;35.798;139.446;2023-04-03T05:19:16;101113.34;;;23.20
48894;BMP280;34710;35.798;139.446;2023-04-03T05:21:42;101110.02;;;22.98
48894;BMP280;34710;35.798;139.446;2023-04-03T05:24:08;101114.95;;;22.80
48894;BMP280;34710;35.798;139.446;2023-04-03T05:26:33;101114.99;;;22.51
48894;BMP280;34710;35.798;139.446;2023-04-03T05:28:58;101112.19;;;22.46
48894;BMP280;34710;35.798;139.446;2023-04-03T05:31:24;101107.07;;;22.64
48894;BMP280;34710;35.798;139.446;2023-04-03T05:33:49;101106.24;;;21.89
48894;BMP280;34710;35.798;139.446;2023-04-03T05:36:14;101102.18;;;22.14
48894;BMP280;34710;35.798;139.446;2023-04-03T05:38:40;101105.83;;;21.70
48894;BMP280;34710;35.798;139.446;2023-04-03T05:41:05;101097.63;;;22.24
48894;BMP280;34710;35.798;139.446;2023-04-03T05:43:30;101093.23;;;21.66
48894;BMP280;34710;35.798;139.446;2023-04-03T05:45:56;101096.85;;;21.82
48894;BMP280;34710;35.798;139.446;2023-04-03T05:48:21;101098.28;;;21.44
48894;BMP280;34710;35.798;139.446;2023-04-03T05:50:48;101100.63;;;20.12
48894;BMP280;34710;35.798;139.446;2023-04-03T05:53:17;101097.12;;;20.15
48894;BMP280;34710;35.798;139.446;2023-04-03T05:55:37;101093.98;;;21.00
48894;BMP280;34710;35.798;139.446;2023-04-03T05:58:03;101097.13;;;21.83
48894;BMP280;34710;35.798;139.446;2023-04-03T06:00:28;101093.80;;;22.08
48894;BMP280;34710;35.798;139.446;2023-04-03T06:02:53;101097.74;;;22.43
48894;BMP280;34710;35.798;139.446;2023-04-03T06:05:19;101093.87;;;22.21
48894;BMP280;34710;35.798;139.446;2023-04-03T06:07:44;101087.35;;;23.06
48894;BMP280;34710;35.798;139.446;2023-04-03T06:10:12;101092.79;;;22.86
48894;BMP280;34710;35.798;139.446;2023-04-03T06:12:36;101095.09;;;21.81
48894;BMP280;34710;35.798;139.446;2023-04-03T06:15:01;101093.62;;;22.13
48894;BMP280;34710;35.798;139.446;2023-04-03T06:17:26;101094.69;;;20.55
48894;BMP280;34710;35.798;139.446;2023-04-03T06:19:52;101095.95;;;19.17
48894;BMP280;34710;35.798;139.446;2023-04-03T06:22:17;101096.16;;;19.21
48894;BMP280;34710;35.798;139.446;2023-04-03T06:24:42;101093.63;;;19.30
48894;BMP280;34710;35.798;139.446;2023-04-03T06:27:09;101096.96;;;20.10
48894;BMP280;34710;35.798;139.446;2023-04-03T06:29:33;101095.20;;;20.83
48894;BMP280;34710;35.798;139.446;2023-04-03T06:31:58;101101.92;;;21.06
48894;BMP280;34710;35.798;139.446;2023-04-03T06:34:24;101104.74;;;21.18
48894;BMP280;34710;35.798;139.446;2023-04-03T06:36:50;101104.43;;;20.41
48894;BMP280;34710;35.798;139.446;2023-04-03T06:39:17;101103.19;;;20.78
48894;BMP280;34710;35.798;139.446;2023-04-03T06:41:40;101103.93;;;20.62
48894;BMP280;34710;35.798;139.446;2023-04-03T06:44:06;101105.42;;;20.62
48894;BMP280;34710;35.798;139.446;2023-04-03T06:46:31;101113.30;;;20.18
48894;BMP280;34710;35.798;139.446;2023-04-03T06:48:57;101112.84;;;18.91
48894;BMP280;34710;35.798;139.446;2023-04-03T06:51:24;101117.76;;;19.24
48894;BMP280;34710;35.798;139.446;2023-04-03T06:53:47;101120.74;;;19.65
48894;BMP280;34710;35.798;139.446;2023-04-03T06:56:12;101123.47;;;20.12
48894;BMP280;34710;35.798;139.446;2023-04-03T06:58:38;101133.88;;;19.12
48894;BMP280;34710;35.798;139.446;2023-04-03T07:01:04;101135.52;;;18.44
48894;BMP280;34710;35.798;139.446;2023-04-03T07:03:29;101147.08;;;17.26
48894;BMP280;34710;35.798;139.446;2023-04-03T07:05:55;101143.59;;;17.17
48894;BMP280;34710;35.798;139.446;2023-04-03T07:08:20;101148.01;;;16.86
48894;BMP280;34710;35.798;139.446;2023-04-03T07:10:45;101151.95;;;17.06
48894;BMP280;34710;35.798;139.446;2023-04-03T07:13:10;101151.01;;;17.88
48894;BMP280;34710;35.798;139.446;2023-04-03T07:15:36;101157.77;;;17.13
48894;BMP280;34710;35.798;139.446;2023-04-03T07:18:01;101160.32;;;17.11
48894;BMP280;34710;35.798;139.446;2023-04-03T07:20:26;101162.25;;;17.56
48894;BMP280;34710;35.798;139.446;2023-04-03T07:22:52;101162.61;;;17.99
48894;BMP280;34710;35.798;139.446;2023-04-03T07:25:18;101163.86;;;17.64
48894;BMP280;34710;35.798;139.446;2023-04-03T07:27:43;101170.67;;;17.18
48894;BMP280;34710;35.798;139.446;2023-04-03T07:30:09;101172.05;;;16.90
48894;BMP280;34710;35.798;139.446;2023-04-03T07:32:34;101175.34;;;17.25
48894;BMP280;34710;35.798;139.446;2023-04-03T07:34:59;101184.71;;;17.27
48894;BMP280;34710;35.798;139.446;2023-04-03T07:37:25;101182.47;;;16.50
48894;BMP280;34710;35.798;139.446;2023-04-03T07:39:50;101188.99;;;16.60
48894;BMP280;34710;35.798;139.446;2023-04-03T07:42:15;101188.35;;;16.00
48894;BMP280;34710;35.798;139.446;2023-04-03T07:44:40;101190.29;;;15.58
48894;BMP280;34710;35.798;139.446;2023-04-03T07:47:06;101189.69;;;16.24
48894;BMP280;34710;35.798;139.446;2023-04-03T07:49:32;101194.23;;;15.96
48894;BMP280;34710;35.798;139.446;2023-04-03T07:51:57;101205.57;;;16.46
48894;BMP280;34710;35.798;139.446;2023-04-03T07:54:23;101202.32;;;17.09
48894;BMP280;34710;35.798;139.446;2023-04-03T07:56:48;101203.22;;;16.99
48894;BMP280;34710;35.798;139.446;2023-04-03T07:59:13;101204.55;;;16.90
48894;BMP280;34710;35.798;139.446;2023-04-03T08:01:38;101212.55;;;16.63
48894;BMP280;34710;35.798;139.446;2023-04-03T08:04:04;101222.34;;;16.58
48894;BMP280;34710;35.798;139.446;2023-04-03T08:06:30;101224.05;;;16.66
48894;BMP280;34710;35.798;139.446;2023-04-03T08:08:55;101226.43;;;16.95
48894;BMP280;34710;35.798;139.446;2023-04-03T08:11:20;101227.99;;;16.64
48894;BMP280;34710;35.798;139.446;2023-04-03T08:13:46;101231.81;;;16.35
48894;BMP280;34710;35.798;139.446;2023-04-03T08:16:14;101237.32;;;16.10
48894;BMP280;34710;35.798;139.446;2023-04-03T08:18:36;101238.63;;;16.74
48894;BMP280;34710;35.798;139.446;2023-04-03T08:21:05;101243.46;;;16.39
48894;BMP280;34710;35.798;139.446;2023-04-03T08:23:27;101248.99;;;16.88
48894;BMP280;34710;35.798;139.446;2023-04-03T08:25:53;101247.79;;;16.69
48894;BMP280;34710;35.798;139.446;2023-04-03T08:28:18;101255.28;;;16.13
48894;BMP280;34710;35.798;139.446;2023-04-03T08:30:43;101248.80;;;15.94
48894;BMP280;34710;35.798;139.446;2023-04-03T08:33:09;101255.54;;;15.29
48894;BMP280;34710;35.798;139.446;2023-04-03T08:35:39;101263.72;;;14.47
48894;BMP280;34710;35.798;139.446;2023-04-03T08:38:00;101268.91;;;14.46
48894;BMP280;34710;35.798;139.446;2023-04-03T08:40:25;101271.20;;;15.00
48894;BMP280;34710;35.798;139.446;2023-04-03T08:42:59;101274.47;;;14.33
48894;BMP280;34710;35.798;139.446;2023-04-03T08:45:18;101278.94;;;13.90
48894;BMP280;34710;35.798;139.446;2023-04-03T08:47:46;101285.52;;;13.56
48894;BMP280;34710;35.798;139.446;2023-04-03T08:50:11;101290.62;;;13.05
48894;BMP280;34710;35.798;139.446;2023-04-03T08:52:36;101295.01;;;13.58
48894;BMP280;34710;35.798;139.446;2023-04-03T08:55:00;101294.81;;;13.38
48894;BMP280;34710;35.798;139.446;2023-04-03T08:57:30;101299.24;;;14.08
48894;BMP280;34710;35.798;139.446;2023-04-03T08:59:49;101301.34;;;14.37
48894;BMP280;34710;35.798;139.446;2023-04-03T09:02:24;101303.28;;;14.39
48894;BMP280;34710;35.798;139.446;2023-04-03T09:04:39;101302.89;;;14.15
48894;BMP280;34710;35.798;139.446;2023-04-03T09:07:10;101307.83;;;14.49
48894;BMP280;34710;35.798;139.446;2023-04-03T09:09:35;101315.01;;;14.12
48894;BMP280;34710;35.798;139.446;2023-04-03T09:12:00;101328.73;;;13.47
48894;BMP280;34710;35.798;139.446;2023-04-03T09:14:28;101328.32;;;12.69
48894;BMP280;34710;35.798;139.446;2023-04-03T09:16:52;101331.31;;;13.64
48894;BMP280;34710;35.798;139.446;2023-04-03T09:19:18;101332.18;;;13.58
48894;BMP280;34710;35.798;139.446;2023-04-03T09:21:40;101336.26;;;13.31
48894;BMP280;34710;35.798;139.446;2023-04-03T09:24:05;101342.78;;;13.48
48894;BMP280;34710;35.798;139.446;2023-04-03T09:26:30;101345.47;;;13.75
48894;BMP280;34710;35.798;139.446;2023-04-03T09:28:57;101350.88;;;14.11
48894;BMP280;34710;35.798;139.446;2023-04-03T09:31:23;101358.52;;;13.68
48894;BMP280;34710;35.798;139.446;2023-04-03T09:33:45;101359.29;;;13.66
48894;BMP280;34710;35.798;139.446;2023-04-03T09:36:10;101364.78;;;14.03
48894;BMP280;34710;35.798;139.446;2023-04-03T09:38:35;101371.63;;;14.06
48894;BMP280;34710;35.798;139.446;2023-04-03T09:41:11;101378.03;;;13.91
48894;BMP280;34710;35.798;139.446;2023-04-03T09:43:28;101384.56;;;13.68
48894;BMP280;34710;35.798;139.446;2023-04-03T09:45:52;101393.89;;;13.75
48894;BMP280;34710;35.798;139.446;2023-04-03T09:48:19;101395.04;;;13.49
48894;BMP280;34710;35.798;139.446;2023-04-03T09:50:57;101398.45;;;13.67
48894;BMP280;34710;35.798;139.446;2023-04-03T09:53:27;101408.49;;;13.14
48894;BMP280;34710;35.798;139.446;2023-04-03T09:55:41;101412.37;;;12.82
48894;BMP280;34710;35.798;139.446;2023-04-03T09:58:00;101414.93;;;12.85
48894;BMP280;34710;35.798;139.446;2023-04-03T10:00:27;101417.66;;;13.49
48894;BMP280;34710;35.798;139.446;2023-04-03T10:02:53;101422.89;;;13.65
48894;BMP280;34710;35.798;139.446;2023-04-03T10:05:28;101430.79;;;12.88
48894;BMP280;34710;35.798;139.446;2023-04-03T10:07:41;101437.92;;;11.97
48894;BMP280;34710;35.798;139.446;2023-04-03T10:12:32;101442.22;;;12.55
48894;BMP280;34710;35.798;139.446;2023-04-03T10:14:58;101445.04;;;12.91
48894;BMP280;34710;35.798;139.446;2023-04-03T10:17:30;101447.50;;;12.48
48894;BMP280;34710;35.798;139.446;2023-04-03T10:19:51;101454.24;;;12.80
48894;BMP280;34710;35.798;139.446;2023-04-03T10:22:19;101461.65;;;12.10
48894;BMP280;34710;35.798;139.446;2023-04-03T10:24:47;101469.94;;;12.33
48894;BMP280;34710;35.798;139.446;2023-04-03T10:27:08;101473.19;;;12.08
48894;BMP280;34710;35.798;139.446;2023-04-03T10:29:39;101479.09;;;12.27
48894;BMP280;34710;35.798;139.446;2023-04-03T10:32:02;101478.12;;;12.82
48894;BMP280;34710;35.798;139.446;2023-04-03T10:34:24;101476.81;;;13.08
48894;BMP280;34710;35.798;139.446;2023-04-03T10:36:51;101481.04;;;12.89
48894;BMP280;34710;35.798;139.446;2023-04-03T10:39:19;101488.21;;;13.04
48894;BMP280;34710;35.798;139.446;2023-04-03T10:41:49;101487.87;;;13.42
48894;BMP280;34710;35.798;139.446;2023-04-03T10:44:12;101493.96;;;13.36
48894;BMP280;34710;35.798;139.446;2023-04-03T10:46:33;101498.65;;;12.85
48894;BMP280;34710;35.798;139.446;2023-04-03T10:49:04;101502.07;;;13.27
48894;BMP280;34710;35.798;139.446;2023-04-03T10:51:25;101501.84;;;13.46
48894;BMP280;34710;35.798;139.446;2023-04-03T10:53:49;101506.75;;;13.03
48894;BMP280;34710;35.798;139.446;2023-04-03T10:56:16;101509.79;;;13.22
48894;BMP280;34710;35.798;139.446;2023-04-03T10:58:38;101512.57;;;13.40
48894;BMP280;34710;35.798;139.446;2023-04-03T11:01:06;101512.22;;;13.09
48894;BMP280;34710;35.798;139.446;2023-04-03T11:03:31;101517.03;;;13.15
48894;BMP280;34710;35.798;139.446;2023-04-03T11:05:52;101521.09;;;13.08
48894;BMP280;34710;35.798;139.446;2023-04-03T11:08:26;101519.98;;;13.13
48894;BMP280;34710;35.798;139.446;2023-04-03T11:10:44;101520.58;;;13.24
48894;BMP280;34710;35.798;139.446;2023-04-03T11:13:13;101522.24;;;13.10
48894;BMP280;34710;35.798;139.446;2023-04-03T11:15:33;101527.38;;;12.36
48894;BMP280;34710;35.798;139.446;2023-04-03T11:18:00;101533.76;;;12.56
48894;BMP280;34710;35.798;139.446;2023-04-03T11:20:28;101540.42;;;12.30
48894;BMP280;34710;35.798;139.446;2023-04-03T11:22:51;101544.78;;;12.66
48894;BMP280;34710;35.798;139.446;2023-04-03T11:25:20;101547.29;;;12.24
48894;BMP280;34710;35.798;139.446;2023-04-03T11:27:43;101550.82;;;12.13
48894;BMP280;34710;35.798;139.446;2023-04-03T11:30:09;101549.77;;;12.49
48894;BMP280;34710;35.798;139.446;2023-04-03T11:32:41;101550.83;;;12.58
48894;BMP280;34710;35.798;139.446;2023-04-03T11:34:58;101552.19;;;12.71
48894;BMP280;34710;35.798;139.446;2023-04-03T11:37:32;101558.86;;;12.53
48894;BMP280;34710;35.798;139.446;2023-04-03T11:39:54;101563.44;;;12.39
48894;BMP280;34710;35.798;139.446;2023-04-03T11:42:27;101566.66;;;12.76
48894;BMP280;34710;35.798;139.446;2023-04-03T11:44:39;101566.43;;;12.61
48894;BMP280;34710;35.798;139.446;2023-04-03T11:47:05;101569.15;;;12.85
48894;BMP280;34710;35.798;139.446;2023-04-03T11:51:54;101576.70;;;12.27
48894;BMP280;34710;35.798;139.446;2023-04-03T11:54:36;101576.97;;;12.40
48894;BMP280;34710;35.798;139.446;2023-04-03T11:56:45;101577.16;;;12.22
48894;BMP280;34710;35.798;139.446;2023-04-03T11:59:23;101581.65;;;12.28
48894;BMP280;34710;35.798;139.446;2023-04-03T12:01:45;101583.40;;;12.60
48894;BMP280;34710;35.798;139.446;2023-04-03T12:04:08;101584.65;;;12.51
48894;BMP280;34710;35.798;139.446;2023-04-03T12:08:54;101596.98;;;11.67
48894;BMP280;34710;35.798;139.446;2023-04-03T12:11:26;101599.30;;;12.03
48894;BMP280;34710;35.798;139.446;2023-04-03T12:18:41;101605.32;;;11.90
48894;BMP280;34710;35.798;139.446;2023-04-03T12:20:59;101607.50;;;12.18
48894;BMP280;34710;35.798;139.446;2023-04-03T12:23:28;101610.26;;;12.40
48894;BMP280;34710;35.798;139.446;2023-04-03T12:25:51;101612.95;;;12.35
48894;BMP280;34710;35.798;139.446;2023-04-03T12:28:15;101613.72;;;12.54
48894;BMP280;34710;35.798;139.446;2023-04-03T12:30:43;101614.98;;;12.57
48894;BMP280;34710;35.798;139.446;2023-04-03T12:33:18;101619.04;;;12.41
48894;BMP280;34710;35.798;139.446;2023-04-03T12:35:38;101625.55;;;12.64
48894;BMP280;34710;35.798;139.446;2023-04-03T12:40:28;101627.70;;;12.48
48894;BMP280;34710;35.798;139.446;2023-04-03T12:45:19;101626.88;;;12.62
48894;BMP280;34710;35.798;139.446;2023-04-03T12:47:43;101628.14;;;12.41
48894;BMP280;34710;35.798;139.446;2023-04-03T12:52:37;101628.94;;;12.58
48894;BMP280;34710;35.798;139.446;2023-04-03T12:54:55;101631.06;;;12.81
48894;BMP280;34710;35.798;139.446;2023-04-03T12:57:23;101630.25;;;12.64
48894;BMP280;34710;35.798;139.446;2023-04-03T12:59:47;101635.03;;;12.38
48894;BMP280;34710;35.798;139.446;2023-04-03T13:02:23;101635.22;;;12.50
48894;BMP280;34710;35.798;139.446;2023-04-03T13:04:39;101638.60;;;12.86
48894;BMP280;34710;35.798;139.446;2023-04-03T13:07:02;101640.67;;;12.89
48894;BMP280;34710;35.798;139.446;2023-04-03T13:09:30;101640.67;;;12.68
48894;BMP280;34710;35.798;139.446;2023-04-03T13:11:59;101640.55;;;12.61
48894;BMP280;34710;35.798;139.446;2023-04-03T13:14:20;101637.41;;;12.53
48894;BMP280;34710;35.798;139.446;2023-04-03T13:16:54;101640.74;;;12.61
48894;BMP280;34710;35.798;139.446;2023-04-03T13:19:16;101640.30;;;12.54
48894;BMP280;34710;35.798;139.446;2023-04-03T13:21:36;101640.70;;;12.51
48894;BMP280;34710;35.798;139.446;2023-04-03T13:24:02;101642.72;;;12.54
48894;BMP280;34710;35.798;139.446;2023-04-03T13:26:28;101642.33;;;12.98
48894;BMP280;34710;35.798;139.446;2023-04-03T13:28:51;101639.87;;;12.47
48894;BMP280;34710;35.798;139.446;2023-04-03T13:31:23;101639.79;;;13.11
48894;BMP280;34710;35.798;139.446;2023-04-03T13:36:10;101639.66;;;12.65
48894;BMP280;34710;35.798;139.446;2023-04-03T13:38:33;101640.48;;;13.12
48894;BMP280;34710;35.798;139.446;2023-04-03T13:41:00;101644.10;;;12.68
48894;BMP280;34710;35.798;139.446;2023-04-03T13:43:26;101641.25;;;12.60
48894;BMP280;34710;35.798;139.446;2023-04-03T13:45:58;101640.82;;;12.39
48894;BMP280;34710;35.798;139.446;2023-04-03T13:48:19;101640.68;;;11.99